createdAt,value
2022-12-12T00:01:04.769Z,125.17647
2022-12-12T00:06:10.866Z,124.11696
2022-12-12T00:11:11.814Z,125.17647
2022-12-12T00:16:12.798Z,125.17647
2022-12-12T00:21:13.767Z,125.17647
2022-12-12T00:26:14.708Z,123.59184
2022-12-12T00:31:15.776Z,122.55072
2022-12-12T00:36:16.757Z,122.55072
2022-12-12T00:41:17.683Z,123.59184
2022-12-12T00:46:18.684Z,123.59184
2022-12-12T00:51:19.674Z,126.24852
2022-12-12T00:56:20.734Z,126.24852
2022-12-12T01:01:21.690Z,126.78932
2022-12-12T01:06:22.651Z,125.17647
2022-12-12T01:11:23.539Z,123.59184
2022-12-12T01:16:24.554Z,123.59184
2022-12-12T01:21:25.543Z,121.52161
2022-12-12T01:26:26.451Z,121.01149
2022-12-12T01:31:27.455Z,122.03468
2022-12-12T01:36:28.429Z,122.03468
2022-12-12T01:41:29.359Z,122.55072
2022-12-12T01:46:30.482Z,122.03468
2022-12-12T01:51:31.456Z,120.5043
2022-12-12T01:56:32.386Z,121.01149
2022-12-12T02:01:33.349Z,121.01149
2022-12-12T02:06:34.312Z,122.55072
2022-12-12T02:11:35.245Z,122.55072
2022-12-12T02:16:36.321Z,122.03468
2022-12-12T02:21:37.332Z,121.01149
2022-12-12T02:26:38.235Z,120.5043
2022-12-12T02:31:39.264Z,120.5043
2022-12-12T02:36:40.309Z,120.5043
2022-12-12T02:41:41.215Z,120.0
2022-12-12T02:46:42.243Z,119.49858
2022-12-12T02:51:43.222Z,118.0113
2022-12-12T02:56:44.167Z,117.52113
2022-12-12T03:01:45.094Z,117.03371
2022-12-12T03:06:46.030Z,116.54902
2022-12-12T03:11:46.917Z,116.54902
2022-12-12T03:16:47.832Z,116.06704
2022-12-12T03:21:48.814Z,116.06704
2022-12-12T03:26:49.736Z,115.11111
2022-12-12T03:31:50.781Z,114.63712
2022-12-12T03:36:51.710Z,114.63712
2022-12-12T03:41:52.604Z,113.69697
2022-12-12T03:46:53.523Z,113.23077
2022-12-12T03:51:54.408Z,113.23077
2022-12-12T03:56:55.423Z,113.23077
2022-12-12T04:01:56.737Z,112.76712
2022-12-12T04:06:57.681Z,112.30601
2022-12-12T04:11:58.589Z,112.30601
2022-12-12T04:16:59.621Z,111.3913
2022-12-12T04:22:00.552Z,111.3913
2022-12-12T04:27:01.469Z,110.93767
2022-12-12T04:32:02.455Z,110.93767
2022-12-12T04:37:03.395Z,110.93767
2022-12-12T04:42:04.289Z,110.03774
2022-12-12T04:47:05.166Z,110.03774
2022-12-12T04:52:06.124Z,110.03774
2022-12-12T04:57:07.047Z,110.48649
2022-12-12T05:02:08.002Z,110.03774
2022-12-12T05:07:08.931Z,110.03774
2022-12-12T05:12:09.847Z,110.03774
2022-12-12T05:17:10.763Z,109.5914
2022-12-12T05:22:11.670Z,108.70588
2022-12-12T05:27:12.573Z,109.14745
2022-12-12T05:32:13.517Z,110.03774
2022-12-12T05:37:14.421Z,107.82979
2022-12-12T05:42:15.412Z,108.26667
2022-12-12T05:47:16.397Z,109.14745
2022-12-12T05:52:17.328Z,109.5914
2022-12-12T05:57:18.269Z,110.93767
2022-12-12T06:02:19.266Z,111.84741
2022-12-12T06:07:20.226Z,111.3913
2022-12-12T06:12:21.470Z,111.84741
2022-12-12T06:17:22.387Z,112.30601
2022-12-12T06:22:23.328Z,112.76712
2022-12-12T06:27:24.283Z,114.63712
2022-12-12T06:32:25.237Z,117.52113
2022-12-12T06:37:26.175Z,116.06704
2022-12-12T06:42:27.080Z,115.11111
2022-12-12T06:47:28.064Z,114.16575
2022-12-12T06:52:29.009Z,113.69697
2022-12-12T06:57:29.965Z,112.76712
2022-12-12T07:02:30.887Z,112.76712
2022-12-12T07:07:31.850Z,113.23077
2022-12-12T07:12:32.764Z,113.69697
2022-12-12T07:17:33.733Z,114.16575
2022-12-12T07:22:34.635Z,113.23077
2022-12-12T07:27:35.572Z,113.23077
2022-12-12T07:32:36.556Z,114.63712
2022-12-12T07:37:37.525Z,116.06704
2022-12-12T07:42:38.454Z,116.06704
2022-12-12T07:47:39.356Z,115.58774
2022-12-12T07:52:40.563Z,115.58774
2022-12-12T07:57:41.530Z,115.11111
2022-12-12T08:02:42.455Z,115.58774
2022-12-12T08:07:43.355Z,115.11111
2022-12-12T08:12:44.304Z,114.63712
2022-12-12T08:17:45.284Z,113.23077
2022-12-12T08:22:46.303Z,112.30601
2022-12-12T08:27:47.264Z,111.84741
2022-12-12T08:32:48.351Z,115.58774
2022-12-12T08:37:49.316Z,115.58774
2022-12-12T08:42:50.261Z,113.23077
2022-12-12T08:47:51.235Z,111.84741
2022-12-12T08:52:52.164Z,112.76712
2022-12-12T08:57:53.118Z,112.30601
2022-12-12T09:02:54.256Z,112.76712
2022-12-12T09:07:55.387Z,114.16575
2022-12-12T09:12:56.502Z,112.76712
2022-12-12T09:17:57.777Z,111.84741
2022-12-12T09:22:58.706Z,112.30601
2022-12-12T09:27:59.727Z,114.16575
2022-12-12T09:33:00.731Z,113.69697
2022-12-12T09:38:01.805Z,114.63712
2022-12-12T09:43:02.715Z,115.58774
2022-12-12T09:48:03.711Z,113.69697
2022-12-12T09:53:04.601Z,113.69697
2022-12-12T09:58:05.497Z,111.3913
2022-12-12T10:03:06.415Z,110.93767
2022-12-12T10:08:07.534Z,111.84741
2022-12-12T10:13:08.521Z,111.3913
2022-12-12T10:18:09.448Z,112.76712
2022-12-12T10:23:10.419Z,110.48649
2022-12-12T10:28:11.374Z,108.26667
2022-12-12T10:33:12.345Z,109.14745
2022-12-12T10:38:13.283Z,109.5914
2022-12-12T10:43:14.298Z,110.03774
2022-12-12T10:48:15.256Z,110.48649
2022-12-12T10:53:16.203Z,114.16575
2022-12-12T10:58:17.201Z,113.23077
2022-12-12T11:03:18.257Z,116.06704
2022-12-12T11:08:19.324Z,119.49858
2022-12-12T11:13:20.281Z,115.58774
2022-12-12T11:18:21.231Z,112.30601
2022-12-12T11:23:22.153Z,111.3913
2022-12-12T11:28:23.095Z,109.14745
2022-12-12T11:33:24.066Z,108.70588
2022-12-12T11:38:25.040Z,107.39523
2022-12-12T11:43:25.988Z,106.10526
2022-12-12T11:48:26.954Z,105.25654
2022-12-12T11:53:27.861Z,106.53298
2022-12-12T11:58:28.768Z,105.25654
2022-12-12T12:03:29.867Z,106.53298
2022-12-12T12:08:30.951Z,109.5914
2022-12-12T12:13:31.949Z,112.30601
2022-12-12T12:18:33.126Z,116.06704
2022-12-12T12:23:39.196Z,122.55072
2022-12-12T12:28:42.335Z,124.64516
2022-12-12T12:33:43.346Z,128.43114
2022-12-12T12:38:44.271Z,129.54217
2022-12-12T12:43:45.155Z,128.98498
2022-12-12T12:48:46.158Z,126.24852
2022-12-12T12:53:47.115Z,123.59184
2022-12-12T12:58:48.096Z,127.8806
2022-12-12T13:03:49.033Z,132.95706
2022-12-12T13:08:49.972Z,135.90031
2022-12-12T13:13:50.906Z,134.12346
2022-12-12T13:18:51.939Z,132.3792
2022-12-12T13:23:52.947Z,131.23404
2022-12-12T13:28:53.896Z,131.23404
2022-12-12T13:33:54.887Z,135.30435
2022-12-12T13:38:55.837Z,134.12346
2022-12-12T13:43:57.072Z,133.53846
2022-12-12T13:48:58.185Z,137.71069
2022-12-12T13:53:59.142Z,138.32177
2022-12-12T13:59:00.068Z,136.5
2022-12-12T14:04:00.990Z,135.90031
2022-12-12T14:09:02.145Z,136.5
2022-12-12T14:14:03.131Z,135.30435
2022-12-12T14:19:04.054Z,134.71207
2022-12-12T14:24:04.992Z,133.53846
2022-12-12T14:29:05.963Z,133.53846
2022-12-12T14:34:06.934Z,138.32177
2022-12-12T14:39:07.942Z,135.30435
2022-12-12T14:44:35.202Z,132.3792
2022-12-12T14:49:39.275Z,133.53846
2022-12-12T14:54:40.229Z,134.71207
2022-12-12T14:59:41.410Z,133.53846
2022-12-12T15:04:42.418Z,135.90031
2022-12-12T15:09:43.303Z,134.12346
2022-12-12T15:14:44.220Z,133.53846
2022-12-12T15:19:45.166Z,133.53846
2022-12-12T15:24:46.122Z,131.23404
2022-12-12T15:29:47.053Z,130.10272
2022-12-12T15:34:47.931Z,130.10272
2022-12-12T15:39:48.874Z,128.98498
2022-12-12T15:44:49.772Z,129.54217
2022-12-12T15:49:50.723Z,128.98498
2022-12-12T15:54:51.651Z,128.98498
2022-12-12T15:59:52.573Z,127.8806
2022-12-12T16:04:53.478Z,127.33333
2022-12-12T16:09:54.465Z,126.24852
2022-12-12T16:14:55.374Z,127.33333
2022-12-12T16:19:56.296Z,128.43114
2022-12-12T16:24:57.434Z,128.43114
2022-12-12T16:29:58.430Z,128.98498
2022-12-12T16:34:59.400Z,128.98498
2022-12-12T16:40:00.343Z,129.54217
2022-12-12T16:45:01.473Z,130.10272
2022-12-12T16:50:02.405Z,131.80488
2022-12-12T16:55:03.580Z,130.66667
2022-12-12T17:00:04.587Z,129.54217
2022-12-12T17:05:05.528Z,131.23404
2022-12-12T17:10:06.474Z,131.80488
2022-12-12T17:15:07.382Z,130.10272
2022-12-12T17:20:08.362Z,130.66667
2022-12-12T17:25:09.272Z,131.23404
2022-12-12T17:30:10.211Z,135.90031
2022-12-12T17:35:11.133Z,133.53846
2022-12-12T17:40:12.347Z,132.3792
2022-12-12T17:45:13.468Z,134.71207
2022-12-12T17:50:14.738Z,135.90031
2022-12-12T17:55:53.231Z,135.90031
2022-12-12T18:00:57.526Z,135.90031
2022-12-12T18:05:58.533Z,134.71207
2022-12-12T18:10:59.526Z,133.53846
2022-12-12T18:16:00.466Z,134.12346
2022-12-12T18:21:01.548Z,135.90031
2022-12-12T18:26:02.497Z,136.5
2022-12-12T18:31:03.437Z,140.80511
2022-12-12T18:36:04.536Z,139.55556
2022-12-12T18:41:05.458Z,140.17834
2022-12-12T18:46:06.441Z,143.35275
2022-12-12T18:51:07.394Z,141.4359
2022-12-12T18:56:08.315Z,138.93671
2022-12-12T19:01:09.328Z,139.55556
2022-12-12T19:06:10.305Z,140.17834
2022-12-12T19:11:11.268Z,140.80511
2022-12-12T19:16:12.232Z,141.4359
2022-12-12T19:21:13.430Z,140.80511
2022-12-12T19:26:14.360Z,139.55556
2022-12-12T19:31:15.456Z,141.4359
2022-12-12T19:36:16.430Z,140.80511
2022-12-12T19:41:17.485Z,141.4359
2022-12-12T19:46:18.578Z,142.70968
2022-12-12T19:51:19.551Z,144.65147
2022-12-12T19:56:20.597Z,144.0
2022-12-12T20:01:21.593Z,142.70968
2022-12-12T20:06:22.611Z,143.35275
2022-12-12T20:11:23.593Z,144.0
2022-12-12T20:16:24.549Z,142.07074
2022-12-12T20:21:59.304Z,142.07074
2022-12-12T20:27:01.677Z,142.07074
2022-12-12T20:32:02.669Z,144.0
2022-12-12T20:37:03.648Z,145.96721
2022-12-12T20:42:04.691Z,145.96721
2022-12-12T20:47:05.638Z,145.30719
2022-12-12T20:52:06.553Z,144.0
2022-12-12T20:57:07.470Z,144.0
2022-12-12T21:02:08.433Z,144.0
2022-12-12T21:07:09.366Z,142.07074
2022-12-12T21:12:10.300Z,137.71069
2022-12-12T21:17:11.225Z,134.71207
2022-12-12T21:22:12.151Z,135.30435
2022-12-12T21:27:13.136Z,135.90031
2022-12-12T21:32:14.031Z,135.90031
2022-12-12T21:37:15.077Z,134.71207
2022-12-12T21:42:15.989Z,134.12346
2022-12-12T21:47:16.925Z,132.3792
2022-12-12T21:52:17.906Z,131.80488
2022-12-12T21:57:23.386Z,131.80488
2022-12-12T22:02:25.849Z,134.12346
2022-12-12T22:07:26.759Z,142.07074
2022-12-12T22:12:28.063Z,147.30033
2022-12-12T22:17:29.007Z,148.65116
2022-12-12T22:22:29.972Z,150.02007
2022-12-12T22:27:30.913Z,150.02007
2022-12-12T22:32:31.841Z,151.40741
2022-12-12T22:37:32.783Z,157.88889
2022-12-12T22:42:33.786Z,157.88889
2022-12-12T22:47:34.690Z,154.23891
2022-12-12T22:52:35.635Z,150.71141
2022-12-12T22:57:36.528Z,149.33333
2022-12-12T23:02:37.460Z,148.65116
2022-12-12T23:07:38.380Z,152.10811
2022-12-12T23:12:39.304Z,152.81356
2022-12-12T23:17:40.253Z,154.9589
2022-12-12T23:22:41.170Z,150.71141
2022-12-12T23:27:42.080Z,150.71141
2022-12-12T23:32:43.018Z,154.9589
2022-12-12T23:37:43.985Z,157.88889
2022-12-12T23:42:44.937Z,157.88889
2022-12-12T23:47:45.864Z,156.41379
2022-12-12T23:52:46.818Z,156.41379
2022-12-12T23:57:47.844Z,154.23891
